Manhattan II — WDI3286 — position and weather

sailwx.info

Track history (hours):
 
Tides and Currents Weather Stations Pressure Air Temp Water Temp Dewpoint Dewpoint Depression Visibility Wind Speed Wind Dir Waves Ship Positions

Manhattan II

Owner: Classic Harbor Lines, LLC, Albany, NY. More information available from US FCC via Universal Licensing System and Coast Guard Vessel Documentation Center.

Last reported at 2018-Apr-22 14:52 UTC. Time now 2018-Apr-22 18:19 UTC.
Position N 40°44' W 073°58'.

Length 30 m.

Type: Passenger vessel. MMSI: 367686740.

Date/timePositionNaut miles runAvg speedWind from/ knotsBaromVisibWave heightAir tempDewpointWater temp
2018-Apr-22 14:52N 40°44' W 073°58'412.0
2018-Apr-22 14:30N 40°41' W 074°02'4 0.3
2018-Apr-22 00:04N 40°45' W 074°01'0 3.5
2018-Apr-21 23:59N 40°45' W 074°01'4 7.8
2018-Apr-21 23:30N 40°41' W 074°02'2 4.4
2018-Apr-21 23:00N 40°42' W 073°60'4 7.0
2018-Apr-21 22:30N 40°46' W 074°00'1 2.0
2018-Apr-21 22:00N 40°45' W 074°01'0 0.0
2018-Apr-21 21:30N 40°45' W 074°01'0 0.0
2018-Apr-21 21:00N 40°45' W 074°01'0 0.0
2018-Apr-21 20:30N 40°45' W 074°01'4 7.6
2018-Apr-21 20:00N 40°48' W 073°59'3 2.5
2018-Apr-21 18:40N 40°45' W 073°57'210.3
2018-Apr-21 18:30N 40°44' W 073°58'4 7.2
2018-Apr-21 18:00N 40°42' W 074°02'3 5.3
2018-Apr-21 17:25N 40°45' W 074°01'0 0.1
2018-Apr-21 17:00N 40°45' W 074°01'611.8
2018-Apr-21 16:29N 40°51' W 073°57'6 4.8
2018-Apr-21 15:20N 40°45' W 073°58'411.4
2018-Apr-21 15:00N 40°42' W 074°00'2 3.7
2018-Apr-21 14:30N 40°44' W 074°01'1 2.4
2018-Apr-21 13:59N 40°45' W 074°01'0 0.0
2018-Apr-21 01:13N 40°45' W 074°01'0 1.2
2018-Apr-21 01:00N 40°45' W 074°01'3 5.4
2018-Apr-21 00:29N 40°42' W 073°60'1 2.0
2018-Apr-21 00:00N 40°42' W 074°00'2 3.3
2018-Apr-20 23:30N 40°43' W 074°01'2 3.8
2018-Apr-20 22:59N 40°45' W 074°01'0 0.0
2018-Apr-20 22:29N 40°45' W 074°01'0 0.0
2018-Apr-20 21:59N 40°45' W 074°01'2 4.6
2018-Apr-20 21:28N 40°43' W 074°01'2 3.4
2018-Apr-20 21:00N 40°42' W 073°59'2 3.5
2018-Apr-20 20:30N 40°43' W 074°01'2 3.6
2018-Apr-20 19:58N 40°45' W 074°01'0 0.0
2018-Apr-20 19:30N 40°45' W 074°01'3 5.6
2018-Apr-20 19:00N 40°43' W 073°59'3 6.6
2018-Apr-20 18:30N 40°41' W 074°03'4 7.7
2018-Apr-20 17:58N 40°45' W 074°01'0 0.0
2018-Apr-20 17:28N 40°45' W 074°01'0 0.0
2018-Apr-20 13:22N 40°45' W 074°01'0 0.0
2018-Apr-20 13:00N 40°45' W 074°01'0 0.0
2018-Apr-20 12:28N 40°45' W 074°01'0 0.0
2018-Apr-20 11:58N 40°45' W 074°01'0 0.0
2018-Apr-20 01:00N 40°45' W 074°01'3 5.3
2018-Apr-20 00:30N 40°42' W 074°01'2 4.4
2018-Apr-20 00:00N 40°43' W 073°58'2 4.5
2018-Apr-19 23:30N 40°43' W 074°01'2 3.8
2018-Apr-19 22:59N 40°45' W 074°01'2 4.6
2018-Apr-19 22:27N 40°43' W 074°01'2 4.2
2018-Apr-19 22:00N 40°42' W 073°59'2 4.0
2018-Apr-19 21:30N 40°43' W 074°01'2 3.6
2018-Apr-19 20:59N 40°45' W 074°01'0 0.0
2018-Apr-19 20:29N 40°45' W 074°01'4 8.3
2018-Apr-19 20:00N 40°49' W 073°58'3 2.7
2018-Apr-19 18:58N 40°46' W 073°57'510.1
2018-Apr-19 18:30N 40°42' W 074°00'2 4.2
2018-Apr-19 17:58N 40°44' W 074°01'1 1.7
2018-Apr-19 17:30N 40°45' W 074°01'0 0.0
2018-Apr-18 17:56N 40°45' W 074°01'0 0.0
2018-Apr-18 17:26N 40°45' W 074°01'2 3.7
2018-Apr-18 17:00N 40°46' W 073°60'2 4.4
2018-Apr-18 16:29N 40°44' W 074°01'4 7.4
2018-Apr-18 16:00N 40°41' W 074°02'4 8.2
2018-Apr-18 15:30N 40°44' W 073°58'2 4.8
2018-Apr-18 15:00N 40°45' W 074°01'0 0.2
2018-Apr-18 14:26N 40°45' W 074°01'0 0.0
2018-Apr-18 01:09N 40°45' W 074°01'0 0.0
2018-Apr-18 01:00N 40°45' W 074°01'2 4.8
2018-Apr-18 00:29N 40°47' W 073°59'4 8.3
2018-Apr-18 00:00N 40°43' W 074°01'3 5.2
2018-Apr-17 23:30N 40°41' W 074°02'2 3.5
2018-Apr-17 22:59N 40°42' W 074°00'3 5.9
2018-Apr-17 22:30N 40°45' W 074°01'0 0.0
2018-Apr-17 22:00N 40°45' W 074°01'0 0.0
2018-Apr-17 21:30N 40°45' W 074°01'0 0.0
2018-Apr-17 21:00N 40°45' W 074°01'0 0.0
2018-Apr-17 20:27N 40°45' W 074°01'4 7.7
2018-Apr-17 19:59N 40°48' W 073°59'3 2.7
2018-Apr-17 18:49N 40°45' W 073°57'310.7
2018-Apr-17 18:30N 40°42' W 073°60'2 2.9
2018-Apr-17 17:59N 40°43' W 074°01'2 0.0
2018-Apr-16 01:15N 40°45' W 074°01'2 8.0
2018-Apr-16 01:00N 40°43' W 074°01'2 4.6
2018-Apr-16 00:29N 40°43' W 073°58'4 7.8
2018-Apr-16 00:00N 40°41' W 074°02'5 9.8
2018-Apr-15 23:30N 40°46' W 074°00'1 2.3
2018-Apr-15 22:59N 40°45' W 074°01'0 0.0
2018-Apr-15 22:30N 40°45' W 074°01'0 0.0
2018-Apr-15 22:00N 40°45' W 074°01'0 0.0
2018-Apr-15 21:30N 40°45' W 074°01'0 0.0
2018-Apr-15 21:00N 40°45' W 074°01'0 0.0
2018-Apr-15 20:30N 40°45' W 074°01'510.1
2018-Apr-15 20:00N 40°49' W 073°58'5 4.4
2018-Apr-15 18:56N 40°45' W 073°58'4 8.3
2018-Apr-15 18:30N 40°42' W 074°01'2 4.7
2018-Apr-15 18:00N 40°44' W 074°01'1 1.7
2018-Apr-15 17:30N 40°45' W 074°01'0 0.0
2018-Apr-15 17:00N 40°45' W 074°01'1 2.4
2018-Apr-15 16:28N 40°46' W 074°00'611.4
2018-Apr-15 15:57N 40°51' W 073°57'6 6.8
2018-Apr-15 15:01N 40°45' W 073°58'0 9.9
2018-Apr-15 15:00N 40°45' W 073°58'5 9.6
2018-Apr-15 14:30N 40°41' W 074°02'4 7.3
2018-Apr-15 13:59N 40°45' W 074°01'0 0.0
2018-Apr-15 02:01N 40°45' W 074°01'0 0.6
2018-Apr-15 01:58N 40°45' W 074°01'3 6.3
2018-Apr-15 01:30N 40°42' W 074°00'2 4.1
2018-Apr-15 01:00N 40°44' W 074°01'1 2.4
2018-Apr-15 00:29N 40°45' W 074°01'0 0.0
2018-Apr-15 00:00N 40°45' W 074°01'3 5.3
2018-Apr-14 23:30N 40°42' W 074°02'1 2.6
2018-Apr-14 22:59N 40°42' W 073°60'2 4.5
2018-Apr-14 22:30N 40°44' W 074°01'1 1.6
2018-Apr-14 22:00N 40°45' W 074°01'0 0.0
2018-Apr-14 21:30N 40°45' W 074°01'0 0.0
2018-Apr-14 21:00N 40°45' W 074°01'0 0.0
2018-Apr-14 20:29N 40°45' W 074°01'713.8
2018-Apr-14 19:58N 40°52' W 073°57'6 5.8
2018-Apr-14 18:56N 40°46' W 073°57'4 9.9
2018-Apr-14 18:29N 40°42' W 074°00'2 5.1
2018-Apr-14 18:00N 40°44' W 074°01'1 1.4
2018-Apr-14 17:30N 40°45' W 074°01'0 0.0
2018-Apr-14 16:59N 40°45' W 074°01'1 2.4
2018-Apr-14 16:30N 40°46' W 074°00'510.6
2018-Apr-14 16:00N 40°51' W 073°57'5 5.3
2018-Apr-14 15:01N 40°45' W 073°58'011.0
2018-Apr-14 14:59N 40°45' W 073°58'510.3
2018-Apr-14 14:30N 40°41' W 074°02'4 7.1
2018-Apr-14 13:59N 40°45' W 074°01'0 0.0
2018-Apr-14 13:29N 40°45' W 074°01'0 0.0
2018-Apr-14 12:59N 40°45' W 074°01'0 0.0
2018-Apr-14 01:30N 40°45' W 074°01'1 1.5
2018-Apr-14 00:58N 40°46' W 074°01'510.0
2018-Apr-14 00:30N 40°41' W 074°03'2 3.1
2018-Apr-13 23:58N 40°42' W 074°00'3 6.6
2018-Apr-13 23:30N 40°45' W 074°01'0 0.0
2018-Apr-13 23:00N 40°45' W 074°01'1 2.0
2018-Apr-13 22:29N 40°46' W 074°00'4 9.0
2018-Apr-13 22:00N 40°42' W 074°02'3 5.0
2018-Apr-13 21:30N 40°44' W 074°01'1 1.4
2018-Apr-13 20:58N 40°45' W 074°01'0 0.2
2018-Apr-13 20:30N 40°45' W 074°01'3 6.2
2018-Apr-13 20:00N 40°42' W 074°02'1 2.7
2018-Apr-13 19:27N 40°42' W 074°00'3 6.1
2018-Apr-13 19:00N 40°45' W 074°01'0 0.0
2018-Apr-13 18:30N 40°45' W 074°01'0 0.0
2018-Apr-13 17:59N 40°45' W 074°01'0 0.4
2018-Apr-13 17:28N 40°45' W 074°01'4 8.2
2018-Apr-13 17:00N 40°41' W 074°03'2 3.4
2018-Apr-13 16:30N 40°42' W 074°00'3 6.3
2018-Apr-13 16:00N 40°45' W 074°01'0 0.0
2018-Apr-13 15:30N 40°45' W 074°01'0 0.0
2018-Apr-13 15:00N 40°45' W 074°01'  
Track history (hours):
 
Tides and Currents Weather Stations Pressure Air Temp Water Temp Dewpoint Dewpoint Depression Visibility Wind Speed Wind Dir Waves Ship Positions

Manhattan II

Owner: Classic Harbor Lines, LLC, Albany, NY. More information available from US FCC via Universal Licensing System and Coast Guard Vessel Documentation Center.

Last reported at 2018-Apr-22 14:52 UTC. Time now 2018-Apr-22 18:19 UTC.
Position N 40°44' W 073°58'.

Length 30 m.

Type: Passenger vessel. MMSI: 367686740.

Date/timePositionNaut miles runAvg speedWind from/ knotsBaromVisibWave heightAir tempDewpointWater temp
2018-Apr-22 14:52N 40°44' W 073°58'412.0
2018-Apr-22 14:30N 40°41' W 074°02'4 0.3
2018-Apr-22 00:04N 40°45' W 074°01'0 3.5
2018-Apr-21 23:59N 40°45' W 074°01'4 7.8
2018-Apr-21 23:30N 40°41' W 074°02'2 4.4
2018-Apr-21 23:00N 40°42' W 073°60'4 7.0
2018-Apr-21 22:30N 40°46' W 074°00'1 2.0
2018-Apr-21 22:00N 40°45' W 074°01'0 0.0
2018-Apr-21 21:30N 40°45' W 074°01'0 0.0
2018-Apr-21 21:00N 40°45' W 074°01'0 0.0
2018-Apr-21 20:30N 40°45' W 074°01'4 7.6
2018-Apr-21 20:00N 40°48' W 073°59'3 2.5
2018-Apr-21 18:40N 40°45' W 073°57'210.3
2018-Apr-21 18:30N 40°44' W 073°58'4 7.2
2018-Apr-21 18:00N 40°42' W 074°02'3 5.3
2018-Apr-21 17:25N 40°45' W 074°01'0 0.1
2018-Apr-21 17:00N 40°45' W 074°01'611.8
2018-Apr-21 16:29N 40°51' W 073°57'6 4.8
2018-Apr-21 15:20N 40°45' W 073°58'411.4
2018-Apr-21 15:00N 40°42' W 074°00'2 3.7
2018-Apr-21 14:30N 40°44' W 074°01'1 2.4
2018-Apr-21 13:59N 40°45' W 074°01'0 0.0
2018-Apr-21 01:13N 40°45' W 074°01'0 1.2
2018-Apr-21 01:00N 40°45' W 074°01'3 5.4
2018-Apr-21 00:29N 40°42' W 073°60'1 2.0
2018-Apr-21 00:00N 40°42' W 074°00'2 3.3
2018-Apr-20 23:30N 40°43' W 074°01'2 3.8
2018-Apr-20 22:59N 40°45' W 074°01'0 0.0
2018-Apr-20 22:29N 40°45' W 074°01'0 0.0
2018-Apr-20 21:59N 40°45' W 074°01'2 4.6
2018-Apr-20 21:28N 40°43' W 074°01'2 3.4
2018-Apr-20 21:00N 40°42' W 073°59'2 3.5
2018-Apr-20 20:30N 40°43' W 074°01'2 3.6
2018-Apr-20 19:58N 40°45' W 074°01'0 0.0
2018-Apr-20 19:30N 40°45' W 074°01'3 5.6
2018-Apr-20 19:00N 40°43' W 073°59'3 6.6
2018-Apr-20 18:30N 40°41' W 074°03'4 7.7
2018-Apr-20 17:58N 40°45' W 074°01'0 0.0
2018-Apr-20 17:28N 40°45' W 074°01'0 0.0
2018-Apr-20 13:22N 40°45' W 074°01'0 0.0
2018-Apr-20 13:00N 40°45' W 074°01'0 0.0
2018-Apr-20 12:28N 40°45' W 074°01'0 0.0
2018-Apr-20 11:58N 40°45' W 074°01'0 0.0
2018-Apr-20 01:00N 40°45' W 074°01'3 5.3
2018-Apr-20 00:30N 40°42' W 074°01'2 4.4
2018-Apr-20 00:00N 40°43' W 073°58'2 4.5
2018-Apr-19 23:30N 40°43' W 074°01'2 3.8
2018-Apr-19 22:59N 40°45' W 074°01'2 4.6
2018-Apr-19 22:27N 40°43' W 074°01'2 4.2
2018-Apr-19 22:00N 40°42' W 073°59'2 4.0
2018-Apr-19 21:30N 40°43' W 074°01'2 3.6
2018-Apr-19 20:59N 40°45' W 074°01'0 0.0
2018-Apr-19 20:29N 40°45' W 074°01'4 8.3
2018-Apr-19 20:00N 40°49' W 073°58'3 2.7
2018-Apr-19 18:58N 40°46' W 073°57'510.1
2018-Apr-19 18:30N 40°42' W 074°00'2 4.2
2018-Apr-19 17:58N 40°44' W 074°01'1 1.7
2018-Apr-19 17:30N 40°45' W 074°01'0 0.0
2018-Apr-18 17:56N 40°45' W 074°01'0 0.0
2018-Apr-18 17:26N 40°45' W 074°01'2 3.7
2018-Apr-18 17:00N 40°46' W 073°60'2 4.4
2018-Apr-18 16:29N 40°44' W 074°01'4 7.4
2018-Apr-18 16:00N 40°41' W 074°02'4 8.2
2018-Apr-18 15:30N 40°44' W 073°58'2 4.8
2018-Apr-18 15:00N 40°45' W 074°01'0 0.2
2018-Apr-18 14:26N 40°45' W 074°01'0 0.0
2018-Apr-18 01:09N 40°45' W 074°01'0 0.0
2018-Apr-18 01:00N 40°45' W 074°01'2 4.8
2018-Apr-18 00:29N 40°47' W 073°59'4 8.3
2018-Apr-18 00:00N 40°43' W 074°01'3 5.2
2018-Apr-17 23:30N 40°41' W 074°02'2 3.5
2018-Apr-17 22:59N 40°42' W 074°00'3 5.9
2018-Apr-17 22:30N 40°45' W 074°01'0 0.0
2018-Apr-17 22:00N 40°45' W 074°01'0 0.0
2018-Apr-17 21:30N 40°45' W 074°01'0 0.0
2018-Apr-17 21:00N 40°45' W 074°01'0 0.0
2018-Apr-17 20:27N 40°45' W 074°01'4 7.7
2018-Apr-17 19:59N 40°48' W 073°59'3 2.7
2018-Apr-17 18:49N 40°45' W 073°57'310.7
2018-Apr-17 18:30N 40°42' W 073°60'2 2.9
2018-Apr-17 17:59N 40°43' W 074°01'2 0.0
2018-Apr-16 01:15N 40°45' W 074°01'2 8.0
2018-Apr-16 01:00N 40°43' W 074°01'2 4.6
2018-Apr-16 00:29N 40°43' W 073°58'4 7.8
2018-Apr-16 00:00N 40°41' W 074°02'5 9.8
2018-Apr-15 23:30N 40°46' W 074°00'1 2.3
2018-Apr-15 22:59N 40°45' W 074°01'0 0.0
2018-Apr-15 22:30N 40°45' W 074°01'0 0.0
2018-Apr-15 22:00N 40°45' W 074°01'0 0.0
2018-Apr-15 21:30N 40°45' W 074°01'0 0.0
2018-Apr-15 21:00N 40°45' W 074°01'0 0.0
2018-Apr-15 20:30N 40°45' W 074°01'510.1
2018-Apr-15 20:00N 40°49' W 073°58'5 4.4
2018-Apr-15 18:56N 40°45' W 073°58'4 8.3
2018-Apr-15 18:30N 40°42' W 074°01'2 4.7
2018-Apr-15 18:00N 40°44' W 074°01'1 1.7
2018-Apr-15 17:30N 40°45' W 074°01'0 0.0
2018-Apr-15 17:00N 40°45' W 074°01'1 2.4
2018-Apr-15 16:28N 40°46' W 074°00'611.4
2018-Apr-15 15:57N 40°51' W 073°57'6 6.8
2018-Apr-15 15:01N 40°45' W 073°58'0 9.9
2018-Apr-15 15:00N 40°45' W 073°58'5 9.6
2018-Apr-15 14:30N 40°41' W 074°02'4 7.3
2018-Apr-15 13:59N 40°45' W 074°01'0 0.0
2018-Apr-15 02:01N 40°45' W 074°01'0 0.6
2018-Apr-15 01:58N 40°45' W 074°01'3 6.3
2018-Apr-15 01:30N 40°42' W 074°00'2 4.1
2018-Apr-15 01:00N 40°44' W 074°01'1 2.4
2018-Apr-15 00:29N 40°45' W 074°01'0 0.0
2018-Apr-15 00:00N 40°45' W 074°01'3 5.3
2018-Apr-14 23:30N 40°42' W 074°02'1 2.6
2018-Apr-14 22:59N 40°42' W 073°60'2 4.5
2018-Apr-14 22:30N 40°44' W 074°01'1 1.6
2018-Apr-14 22:00N 40°45' W 074°01'0 0.0
2018-Apr-14 21:30N 40°45' W 074°01'0 0.0
2018-Apr-14 21:00N 40°45' W 074°01'0 0.0
2018-Apr-14 20:29N 40°45' W 074°01'713.8
2018-Apr-14 19:58N 40°52' W 073°57'6 5.8
2018-Apr-14 18:56N 40°46' W 073°57'4 9.9
2018-Apr-14 18:29N 40°42' W 074°00'2 5.1
2018-Apr-14 18:00N 40°44' W 074°01'1 1.4
2018-Apr-14 17:30N 40°45' W 074°01'0 0.0
2018-Apr-14 16:59N 40°45' W 074°01'1 2.4
2018-Apr-14 16:30N 40°46' W 074°00'510.6
2018-Apr-14 16:00N 40°51' W 073°57'5 5.3
2018-Apr-14 15:01N 40°45' W 073°58'011.0
2018-Apr-14 14:59N 40°45' W 073°58'510.3
2018-Apr-14 14:30N 40°41' W 074°02'4 7.1
2018-Apr-14 13:59N 40°45' W 074°01'0 0.0
2018-Apr-14 13:29N 40°45' W 074°01'0 0.0
2018-Apr-14 12:59N 40°45' W 074°01'0 0.0
2018-Apr-14 01:30N 40°45' W 074°01'1 1.5
2018-Apr-14 00:58N 40°46' W 074°01'510.0
2018-Apr-14 00:30N 40°41' W 074°03'2 3.1
2018-Apr-13 23:58N 40°42' W 074°00'3 6.6
2018-Apr-13 23:30N 40°45' W 074°01'0 0.0
2018-Apr-13 23:00N 40°45' W 074°01'1 2.0
2018-Apr-13 22:29N 40°46' W 074°00'4 9.0
2018-Apr-13 22:00N 40°42' W 074°02'3 5.0
2018-Apr-13 21:30N 40°44' W 074°01'1 1.4
2018-Apr-13 20:58N 40°45' W 074°01'0 0.2
2018-Apr-13 20:30N 40°45' W 074°01'3 6.2
2018-Apr-13 20:00N 40°42' W 074°02'1 2.7
2018-Apr-13 19:27N 40°42' W 074°00'3 6.1
2018-Apr-13 19:00N 40°45' W 074°01'0 0.0
2018-Apr-13 18:30N 40°45' W 074°01'0 0.0
2018-Apr-13 17:59N 40°45' W 074°01'0 0.4
2018-Apr-13 17:28N 40°45' W 074°01'4 8.2
2018-Apr-13 17:00N 40°41' W 074°03'2 3.4
2018-Apr-13 16:30N 40°42' W 074°00'3 6.3
2018-Apr-13 16:00N 40°45' W 074°01'0 0.0
2018-Apr-13 15:30N 40°45' W 074°01'0 0.0
2018-Apr-13 15:00N 40°45' W 074°01'  

Dump ship's entire track history